createdAt,value
2023-02-19T00:01:31.591Z,12.80
2023-02-19T00:04:22.284Z,12.04
2023-02-19T00:07:04.240Z,10.70
2023-02-19T00:09:45.661Z,9.71
2023-02-19T00:12:33.248Z,10.95
2023-02-19T00:15:07.903Z,12.90
2023-02-19T00:17:56.245Z,12.39
2023-02-19T00:20:37.236Z,11.03
2023-02-19T00:23:18.419Z,9.95
2023-02-19T00:26:06.017Z,9.92
2023-02-19T00:28:54.394Z,12.44
2023-02-19T00:31:43.330Z,12.95
2023-02-19T00:34:19.378Z,11.62
2023-02-19T00:37:07.235Z,10.44
2023-02-19T00:39:41.370Z,9.66
2023-02-19T00:42:29.258Z,10.40
2023-02-19T00:45:04.427Z,12.74
2023-02-19T00:47:52.240Z,12.85
2023-02-19T00:50:26.371Z,11.38
2023-02-19T00:53:14.236Z,10.28
2023-02-19T00:55:55.253Z,9.53
2023-02-19T00:58:50.230Z,10.36
2023-02-19T01:01:38.288Z,12.77
2023-02-19T01:04:13.547Z,13.10
2023-02-19T01:07:01.238Z,11.73
2023-02-19T01:09:35.376Z,10.51
2023-02-19T01:12:23.238Z,9.69
2023-02-19T01:14:58.373Z,10.40
2023-02-19T01:17:46.232Z,12.33
2023-02-19T01:20:28.228Z,12.15
2023-02-19T01:23:25.296Z,10.92
2023-02-19T01:26:15.268Z,9.90
2023-02-19T01:28:50.382Z,9.86
2023-02-19T01:31:38.361Z,12.04
2023-02-19T01:34:13.402Z,12.94
2023-02-19T01:37:01.431Z,11.79
2023-02-19T01:39:36.553Z,10.65
2023-02-19T01:42:24.245Z,9.77
2023-02-19T01:45:28.408Z,9.67
2023-02-19T01:48:20.437Z,12.31
2023-02-19T01:51:08.741Z,12.79
2023-02-19T01:54:08.241Z,11.36
2023-02-19T01:56:57.233Z,10.18
2023-02-19T01:59:39.223Z,10.25
2023-02-19T02:02:35.227Z,12.63
2023-02-19T02:05:32.224Z,12.69
2023-02-19T02:08:27.753Z,11.30
2023-02-19T02:11:15.233Z,10.11
2023-02-19T02:13:56.358Z,10.03
2023-02-19T02:17:15.225Z,12.02
2023-02-19T02:20:03.241Z,12.89
2023-02-19T02:22:49.623Z,11.63
2023-02-19T02:25:56.238Z,10.36
2023-02-19T02:28:58.199Z,10.44
2023-02-19T02:31:58.325Z,12.93
2023-02-19T02:35:10.243Z,12.42
2023-02-19T02:38:00.235Z,10.86
2023-02-19T02:40:41.357Z,10.06
2023-02-19T02:43:22.228Z,11.45
2023-02-19T02:46:10.247Z,13.21
2023-02-19T02:49:00.234Z,12.44
2023-02-19T02:51:47.420Z,11.02
2023-02-19T02:54:50.231Z,10.07
2023-02-19T02:57:31.340Z,10.17
2023-02-19T03:00:13.223Z,12.28
2023-02-19T03:03:01.425Z,12.61
2023-02-19T03:05:51.870Z,11.31
2023-02-19T03:08:46.231Z,10.07
2023-02-19T03:11:46.241Z,9.35
2023-02-19T03:14:49.017Z,10.97
2023-02-19T03:18:03.444Z,12.45
2023-02-19T03:20:47.371Z,11.03
2023-02-19T03:23:49.201Z,9.93
2023-02-19T03:26:30.361Z,9.94
2023-02-19T03:29:30.249Z,11.92
2023-02-19T03:32:36.447Z,12.47
2023-02-19T03:35:28.242Z,10.96
2023-02-19T03:38:22.363Z,9.91
2023-02-19T03:41:40.207Z,10.02
2023-02-19T03:44:32.232Z,12.39
2023-02-19T03:47:34.229Z,12.30
2023-02-19T03:50:43.218Z,10.78
2023-02-19T03:53:45.565Z,9.65
2023-02-19T03:56:41.194Z,10.45
2023-02-19T03:59:24.352Z,12.67
2023-02-19T04:02:26.248Z,12.07
2023-02-19T04:05:38.215Z,10.60
2023-02-19T04:08:27.212Z,9.51
2023-02-19T04:11:02.396Z,10.91
2023-02-19T04:13:55.407Z,12.83
2023-02-19T04:16:35.572Z,12.66
2023-02-19T04:19:27.413Z,11.23
2023-02-19T04:22:16.406Z,10.08
2023-02-19T04:25:00.415Z,10.92
2023-02-19T04:27:48.339Z,12.66
2023-02-19T04:30:29.306Z,12.17
2023-02-19T04:33:17.212Z,10.87
2023-02-19T04:35:51.658Z,10.04
2023-02-19T04:38:39.208Z,11.13
2023-02-19T04:41:13.840Z,12.62
2023-02-19T04:44:02.216Z,13.23
2023-02-19T04:46:36.599Z,12.05
2023-02-19T04:49:24.215Z,10.82
2023-02-19T04:51:58.652Z,10.59
2023-02-19T04:54:46.192Z,12.23
2023-02-19T04:57:41.209Z,12.63
2023-02-19T05:00:29.201Z,11.43
2023-02-19T05:03:04.327Z,10.38
2023-02-19T05:05:52.193Z,10.33
2023-02-19T05:08:27.319Z,12.13
2023-02-19T05:11:17.216Z,13.39
2023-02-19T05:13:52.414Z,13.25
2023-02-19T05:16:40.202Z,11.83
2023-02-19T05:19:20.362Z,10.66
2023-02-19T05:22:08.221Z,10.48
2023-02-19T05:24:43.627Z,12.51
2023-02-19T05:27:32.414Z,13.59
2023-02-19T05:30:07.610Z,12.41
2023-02-19T05:32:55.398Z,11.08
2023-02-19T05:35:31.331Z,10.63
2023-02-19T05:38:19.243Z,12.08
2023-02-19T05:41:01.195Z,13.20
2023-02-19T05:43:58.230Z,12.36
2023-02-19T05:46:47.325Z,10.94
2023-02-19T05:49:29.212Z,10.58
2023-02-19T05:52:24.192Z,12.53
2023-02-19T05:55:12.200Z,12.75
2023-02-19T05:57:51.341Z,11.31
2023-02-19T06:00:40.259Z,10.18
2023-02-19T06:03:22.389Z,10.96
2023-02-19T06:06:17.173Z,13.04
2023-02-19T06:09:05.215Z,12.95
2023-02-19T06:11:40.328Z,11.54
2023-02-19T06:14:28.237Z,10.39
2023-02-19T06:17:03.347Z,10.96
2023-02-19T06:19:51.203Z,12.94
2023-02-19T06:22:26.321Z,12.78
2023-02-19T06:25:19.404Z,11.50
2023-02-19T06:28:01.781Z,10.44
2023-02-19T06:30:57.188Z,11.39
2023-02-19T06:33:53.199Z,13.21
2023-02-19T06:36:41.390Z,12.80
2023-02-19T06:39:24.176Z,11.47
2023-02-19T06:42:19.283Z,10.52
2023-02-19T06:45:07.181Z,11.84
2023-02-19T06:47:42.585Z,13.41
2023-02-19T06:50:30.392Z,13.44
2023-02-19T06:53:05.357Z,12.13
2023-02-19T06:56:06.200Z,11.02
2023-02-19T06:58:42.305Z,10.92
2023-02-19T07:01:31.195Z,12.72
2023-02-19T07:04:13.239Z,13.47
2023-02-19T07:07:01.195Z,12.33
2023-02-19T07:09:42.520Z,11.09
2023-02-19T07:12:24.409Z,11.27
2023-02-19T07:15:05.516Z,13.44
2023-02-19T07:17:47.171Z,14.26
2023-02-19T07:20:28.350Z,12.95
2023-02-19T07:23:09.602Z,11.77
2023-02-19T07:25:57.200Z,11.22
2023-02-19T07:28:31.622Z,12.84
2023-02-19T07:31:19.274Z,13.86
2023-02-19T07:34:14.170Z,12.72
2023-02-19T07:37:02.181Z,11.45
2023-02-19T07:39:37.306Z,11.30
2023-02-19T07:42:25.188Z,13.12
2023-02-19T07:45:00.733Z,14.29
2023-02-19T07:47:49.186Z,13.73
2023-02-19T07:50:24.298Z,12.47
2023-02-19T07:53:12.205Z,11.54
2023-02-19T07:55:47.315Z,11.70
2023-02-19T07:58:36.189Z,13.90
2023-02-19T08:01:41.239Z,14.78
2023-02-19T08:04:22.200Z,13.61
2023-02-19T08:07:03.362Z,12.59
2023-02-19T08:09:45.181Z,11.85
2023-02-19T08:12:44.858Z,11.89
2023-02-19T08:15:26.196Z,14.02
2023-02-19T08:18:07.851Z,14.58
2023-02-19T08:20:50.170Z,13.32
2023-02-19T08:23:39.167Z,12.12
2023-02-19T08:26:20.200Z,11.32
2023-02-19T08:29:01.293Z,11.49
2023-02-19T08:31:42.369Z,13.54
2023-02-19T08:34:30.230Z,14.60
2023-02-19T08:37:25.221Z,13.28
2023-02-19T08:40:13.187Z,11.92
2023-02-19T08:42:48.308Z,11.02
2023-02-19T08:45:36.171Z,10.90
2023-02-19T08:48:18.177Z,12.41
2023-02-19T08:51:10.493Z,13.34
2023-02-19T08:53:53.176Z,13.59
2023-02-19T08:56:48.187Z,12.25
2023-02-19T08:59:36.166Z,10.94
2023-02-19T09:02:13.189Z,11.07
2023-02-19T09:05:01.335Z,12.74
2023-02-19T09:07:36.286Z,13.46
2023-02-19T09:10:24.176Z,12.26
2023-02-19T09:13:05.163Z,11.44
2023-02-19T09:16:00.222Z,12.90
2023-02-19T09:18:48.171Z,13.96
2023-02-19T09:21:35.345Z,12.82
2023-02-19T09:24:30.172Z,11.26
2023-02-19T09:27:23.169Z,11.84
2023-02-19T09:29:59.024Z,13.14
2023-02-19T09:32:48.168Z,12.36
2023-02-19T09:35:23.290Z,11.01
2023-02-19T09:38:11.382Z,11.54
2023-02-19T09:40:53.160Z,12.41
2023-02-19T09:43:48.372Z,11.52
2023-02-19T09:46:54.164Z,10.10
2023-02-19T09:49:40.058Z,10.85
2023-02-19T09:52:45.165Z,11.97
2023-02-19T09:55:45.473Z,11.08
2023-02-19T09:58:37.154Z,9.58
2023-02-19T10:01:13.663Z,9.97
2023-02-19T10:04:02.180Z,11.33
2023-02-19T10:06:39.289Z,12.07
2023-02-19T10:09:33.584Z,10.82
2023-02-19T10:12:10.158Z,9.55
2023-02-19T10:15:04.038Z,10.49
2023-02-19T10:17:39.443Z,11.78
2023-02-19T10:20:32.170Z,11.31
2023-02-19T10:23:09.287Z,9.80
2023-02-19T10:26:06.171Z,9.31
2023-02-19T10:28:42.365Z,10.78
2023-02-19T10:31:32.320Z,11.40
2023-02-19T10:34:32.636Z,10.35
2023-02-19T10:37:14.809Z,9.02
2023-02-19T10:40:04.209Z,9.99
2023-02-19T10:42:53.374Z,10.85
2023-02-19T10:45:45.411Z,9.44
2023-02-19T10:49:07.156Z,8.27
2023-02-19T10:51:48.277Z,9.93
2023-02-19T10:54:34.376Z,10.68
2023-02-19T10:57:25.928Z,9.37
2023-02-19T11:00:11.200Z,8.25
2023-02-19T11:02:52.467Z,9.62
2023-02-19T11:05:34.138Z,10.71
2023-02-19T11:08:30.308Z,10.04
2023-02-19T11:11:11.472Z,8.52
2023-02-19T11:13:52.305Z,9.02
2023-02-19T11:16:46.164Z,10.70
2023-02-19T11:19:55.409Z,10.39
2023-02-19T11:22:42.068Z,8.66
2023-02-19T11:25:32.151Z,8.26
2023-02-19T11:28:35.842Z,10.15
2023-02-19T11:31:33.232Z,10.98
2023-02-19T11:34:30.161Z,9.26
2023-02-19T11:37:28.139Z,7.98
2023-02-19T11:40:10.156Z,9.25
2023-02-19T11:43:29.262Z,11.20
2023-02-19T11:46:33.345Z,10.46
2023-02-19T11:49:28.424Z,8.79
2023-02-19T11:52:54.249Z,7.98
2023-02-19T11:55:30.029Z,10.19
2023-02-19T11:58:42.162Z,10.04
2023-02-19T12:01:24.580Z,8.79
2023-02-19T12:04:27.186Z,7.86
2023-02-19T12:07:36.139Z,8.71
2023-02-19T12:10:29.038Z,11.23
2023-02-19T12:13:41.336Z,10.26
2023-02-19T12:16:50.312Z,8.82
2023-02-19T12:19:53.375Z,8.34
2023-02-19T12:22:52.165Z,10.72
2023-02-19T12:25:52.282Z,10.23
2023-02-19T12:28:55.129Z,8.74
2023-02-19T12:32:02.298Z,7.70
2023-02-19T12:34:59.123Z,8.07
2023-02-19T12:37:45.550Z,10.54
2023-02-19T12:41:11.128Z,10.20
2023-02-19T12:43:55.123Z,8.88
2023-02-19T12:46:47.367Z,7.97
2023-02-19T12:49:47.071Z,7.33
2023-02-19T12:52:36.886Z,7.97
2023-02-19T12:55:32.215Z,10.76
2023-02-19T12:58:25.293Z,11.00
2023-02-19T13:01:14.368Z,9.59
2023-02-19T13:04:00.312Z,8.66
2023-02-19T13:06:53.179Z,7.83
2023-02-19T13:09:44.255Z,8.23
2023-02-19T13:12:32.132Z,10.20
2023-02-19T13:15:38.124Z,9.32
2023-02-19T13:18:49.287Z,7.96
2023-02-19T13:21:53.140Z,7.18
2023-02-19T13:24:41.763Z,9.59
2023-02-19T13:27:32.130Z,10.06
2023-02-19T13:30:35.394Z,8.74
2023-02-19T13:33:32.134Z,7.67
2023-02-19T13:36:23.347Z,6.91
2023-02-19T13:38:59.849Z,7.31
2023-02-19T13:41:55.118Z,9.97
2023-02-19T13:44:32.067Z,9.54
2023-02-19T13:47:59.355Z,8.36
2023-02-19T13:50:47.565Z,7.28
2023-02-19T13:53:55.129Z,7.37
2023-02-19T13:56:43.317Z,10.07
2023-02-19T13:59:26.174Z,9.71
2023-02-19T14:02:38.226Z,8.42
2023-02-19T14:06:06.908Z,7.32
2023-02-19T14:09:12.370Z,8.26
2023-02-19T14:12:21.532Z,10.62
2023-02-19T14:15:51.193Z,9.52
2023-02-19T14:18:57.145Z,7.83
2023-02-19T14:21:40.663Z,6.88
2023-02-19T14:24:30.142Z,8.13
2023-02-19T14:27:12.466Z,9.73
2023-02-19T14:29:53.873Z,8.72
2023-02-19T14:32:35.135Z,7.57
2023-02-19T14:35:30.346Z,6.89
2023-02-19T14:38:13.125Z,8.74
2023-02-19T14:40:56.262Z,9.99
2023-02-19T14:46:44.307Z,7.25
2023-02-19T14:49:34.187Z,7.67
2023-02-19T14:52:26.838Z,9.81
2023-02-19T14:55:20.145Z,9.27
2023-02-19T14:57:58.355Z,7.68
2023-02-19T15:00:49.179Z,6.50
2023-02-19T15:03:43.163Z,5.83
2023-02-19T15:06:38.119Z,7.66
2023-02-19T15:09:27.125Z,9.50
2023-02-19T15:12:03.021Z,8.39
2023-02-19T15:14:52.266Z,7.14
2023-02-19T15:17:43.201Z,6.19
2023-02-19T15:20:20.337Z,5.58
2023-02-19T15:23:10.137Z,6.92
2023-02-19T15:25:45.836Z,8.77
2023-02-19T15:28:40.116Z,7.87
2023-02-19T15:31:30.225Z,6.66
2023-02-19T15:34:24.175Z,5.77
2023-02-19T15:37:10.113Z,5.15
2023-02-19T15:40:06.133Z,5.58
2023-02-19T15:42:54.768Z,8.11
2023-02-19T15:45:48.119Z,8.10
2023-02-19T15:48:50.110Z,6.71
2023-02-19T15:51:41.119Z,5.73
2023-02-19T15:54:44.550Z,5.09
2023-02-19T15:57:30.110Z,4.64
2023-02-19T16:00:27.261Z,4.28
2023-02-19T16:03:02.191Z,3.99
2023-02-19T16:05:51.106Z,4.58
2023-02-19T16:08:35.200Z,7.45
2023-02-19T16:11:41.095Z,8.46
2023-02-19T16:14:24.089Z,7.10
2023-02-19T16:17:18.124Z,6.04
2023-02-19T16:20:01.735Z,5.31
2023-02-19T16:22:49.276Z,4.80
2023-02-19T16:25:51.126Z,5.39
2023-02-19T16:28:35.434Z,8.48
2023-02-19T16:31:20.518Z,8.62
2023-02-19T16:34:32.252Z,7.27
2023-02-19T16:38:12.252Z,6.07
2023-02-19T16:41:14.280Z,5.18
2023-02-19T16:43:50.225Z,4.70
2023-02-19T16:46:38.114Z,5.28
2023-02-19T16:49:20.237Z,8.22
2023-02-19T16:52:04.179Z,8.23
2023-02-19T16:54:46.067Z,6.92
2023-02-19T16:57:27.146Z,5.98
2023-02-19T17:00:19.555Z,5.30
2023-02-19T17:02:59.270Z,4.84
2023-02-19T17:05:47.326Z,4.46
2023-02-19T17:08:44.105Z,5.34
2023-02-19T17:11:25.255Z,8.23
2023-02-19T17:14:07.083Z,7.86
2023-02-19T17:16:55.090Z,6.67
2023-02-19T17:19:50.097Z,5.81
2023-02-19T17:22:38.990Z,5.18
2023-02-19T17:25:14.235Z,4.76
2023-02-19T17:28:02.099Z,4.80
2023-02-19T17:30:40.007Z,7.32
2023-02-19T17:33:38.265Z,8.93
2023-02-19T17:36:45.089Z,7.69
2023-02-19T17:39:33.125Z,6.49
2023-02-19T17:42:08.572Z,5.80
2023-02-19T17:44:57.265Z,5.30
2023-02-19T17:47:39.093Z,4.95
2023-02-19T17:50:38.278Z,6.64
2023-02-19T17:53:26.098Z,8.88
2023-02-19T17:56:01.351Z,7.91
2023-02-19T17:58:49.229Z,6.74
2023-02-19T18:01:25.407Z,5.90
2023-02-19T18:04:18.170Z,5.31
2023-02-19T18:06:54.174Z,4.82
2023-02-19T18:09:42.093Z,4.41
2023-02-19T18:12:24.087Z,5.02
2023-02-19T18:15:09.426Z,7.84
2023-02-19T18:17:58.112Z,8.08
2023-02-19T18:20:40.525Z,6.76
2023-02-19T18:23:30.113Z,5.68
2023-02-19T18:26:14.078Z,4.93
2023-02-19T18:28:55.218Z,4.39
2023-02-19T18:31:39.271Z,5.51
2023-02-19T18:34:34.095Z,8.42
2023-02-19T18:37:23.259Z,8.75
2023-02-19T18:40:01.516Z,7.34
2023-02-19T18:42:51.305Z,6.09
2023-02-19T18:45:26.348Z,5.28
2023-02-19T18:48:14.081Z,4.70
2023-02-19T18:50:49.470Z,4.23
2023-02-19T18:53:37.269Z,4.83
2023-02-19T18:56:13.325Z,7.71
2023-02-19T18:59:02.102Z,8.16
2023-02-19T19:01:44.243Z,6.76
2023-02-19T19:04:25.600Z,5.55
2023-02-19T19:07:14.386Z,4.75
2023-02-19T19:09:50.265Z,4.18
2023-02-19T19:12:38.079Z,3.73
2023-02-19T19:15:28.486Z,4.07
2023-02-19T19:18:12.236Z,7.18
2023-02-19T19:20:53.468Z,7.46
2023-02-19T19:23:37.260Z,6.13
2023-02-19T19:26:20.143Z,5.16
2023-02-19T19:29:01.353Z,4.42
2023-02-19T19:31:45.364Z,3.97
2023-02-19T19:34:45.080Z,4.69
2023-02-19T19:37:41.479Z,7.62
2023-02-19T19:40:30.062Z,7.59
2023-02-19T19:43:13.273Z,6.34
2023-02-19T19:46:09.345Z,5.37
2023-02-19T19:48:47.264Z,4.66
2023-02-19T19:51:40.080Z,4.30
2023-02-19T19:54:15.250Z,6.46
2023-02-19T19:57:03.083Z,8.34
2023-02-19T19:59:39.637Z,7.29
2023-02-19T20:02:30.103Z,6.01
2023-02-19T20:05:07.130Z,5.09
2023-02-19T20:07:56.102Z,4.42
2023-02-19T20:10:31.409Z,4.75
2023-02-19T20:13:25.565Z,7.52
2023-02-19T20:16:00.475Z,7.67
2023-02-19T20:18:49.362Z,6.28
2023-02-19T20:21:31.166Z,5.15
2023-02-19T20:24:35.281Z,4.30
2023-02-19T20:27:25.178Z,4.88
2023-02-19T20:30:08.353Z,7.57
2023-02-19T20:33:04.224Z,7.27
2023-02-19T20:35:55.657Z,5.78
2023-02-19T20:38:37.304Z,4.68
2023-02-19T20:41:20.335Z,4.00
2023-02-19T20:44:09.073Z,5.37
2023-02-19T20:46:53.200Z,7.52
2023-02-19T20:49:44.355Z,6.45
2023-02-19T20:52:26.675Z,5.18
2023-02-19T20:55:19.015Z,4.27
2023-02-19T20:58:01.165Z,3.73
2023-02-19T21:00:49.084Z,5.85
2023-02-19T21:03:30.050Z,7.45
2023-02-19T21:06:11.592Z,6.26
2023-02-19T21:08:53.192Z,5.07
2023-02-19T21:11:42.195Z,4.17
2023-02-19T21:14:18.203Z,3.73
2023-02-19T21:17:07.057Z,5.95
2023-02-19T21:19:41.666Z,7.52
2023-02-19T21:22:30.044Z,6.29
2023-02-19T21:25:13.070Z,4.97
2023-02-19T21:27:54.246Z,4.06
2023-02-19T21:30:35.087Z,3.60
2023-02-19T21:33:30.056Z,5.61
2023-02-19T21:36:38.054Z,7.50
2023-02-19T21:39:14.261Z,6.21
2023-02-19T21:42:02.053Z,4.97
2023-02-19T21:44:44.179Z,4.08
2023-02-19T21:47:39.079Z,3.61
2023-02-19T21:50:35.039Z,6.01
2023-02-19T21:53:23.038Z,7.20
2023-02-19T21:55:59.189Z,5.86
2023-02-19T21:58:47.047Z,4.75
2023-02-19T22:01:51.313Z,3.93
2023-02-19T22:04:50.716Z,4.24
2023-02-19T22:07:41.042Z,6.84
2023-02-19T22:10:16.931Z,6.99
2023-02-19T22:13:18.629Z,5.69
2023-02-19T22:16:09.249Z,4.56
2023-02-19T22:18:59.062Z,3.69
2023-02-19T22:21:53.402Z,3.98
2023-02-19T22:24:42.172Z,7.02
2023-02-19T22:27:19.315Z,7.49
2023-02-19T22:30:07.283Z,5.98
2023-02-19T22:32:56.128Z,4.80
2023-02-19T22:35:44.221Z,3.93
2023-02-19T22:38:27.813Z,4.20
2023-02-19T22:41:10.297Z,6.91
2023-02-19T22:43:53.303Z,7.23
2023-02-19T22:46:37.032Z,5.84
2023-02-19T22:49:18.206Z,4.66
2023-02-19T22:52:02.070Z,3.89
2023-02-19T22:54:51.219Z,4.10
2023-02-19T22:57:26.834Z,6.95
2023-02-19T23:00:16.360Z,7.48
2023-02-19T23:02:52.041Z,6.08
2023-02-19T23:05:41.267Z,4.87
2023-02-19T23:08:23.163Z,4.02
2023-02-19T23:11:05.176Z,3.37
2023-02-19T23:13:49.031Z,3.62
2023-02-19T23:16:33.065Z,6.47
2023-02-19T23:19:18.056Z,7.72
2023-02-19T23:22:07.013Z,6.34
2023-02-19T23:24:48.237Z,5.04
2023-02-19T23:27:29.162Z,4.10
2023-02-19T23:30:11.225Z,3.49
2023-02-19T23:32:52.143Z,3.09
2023-02-19T23:35:40.233Z,5.06
2023-02-19T23:38:21.434Z,7.50
2023-02-19T23:41:03.216Z,6.75
2023-02-19T23:43:45.156Z,5.35
2023-02-19T23:46:27.230Z,4.42
2023-02-19T23:49:09.209Z,3.69
2023-02-19T23:51:50.009Z,4.29
2023-02-19T23:54:32.303Z,6.92
2023-02-19T23:57:14.024Z,7.77
2023-02-19T23:59:55.244Z,6.37
